createdAt,value
2022-11-25T20:16:40.146Z,63.63
2022-11-25T20:19:02.120Z,174.90
2022-11-25T20:20:33.343Z,223.70
2022-11-25T20:21:54.258Z,274.85
2022-11-25T20:23:25.728Z,151.02
2022-11-25T20:24:47.141Z,164.75
2022-11-25T20:26:24.633Z,66.15
2022-11-25T20:27:45.502Z,39.17
2022-11-25T20:29:19.130Z,29.55
2022-11-25T20:30:39.921Z,35.38
2022-11-25T20:32:25.999Z,34.30
2022-11-25T20:33:48.458Z,33.28
2022-11-25T20:35:11.144Z,28.92
2022-11-25T20:36:33.450Z,26.45
2022-11-25T20:37:54.829Z,22.95
2022-11-25T20:39:19.165Z,29.88
2022-11-25T20:40:42.413Z,37.03
2022-11-25T20:42:03.702Z,31.38
2022-11-25T20:43:39.104Z,34.65
2022-11-25T20:44:59.985Z,40.63
2022-11-25T20:46:23.961Z,44.65
2022-11-25T20:47:45.994Z,71.50
2022-11-25T20:49:21.663Z,180.50
2022-11-25T20:50:43.079Z,190.27
2022-11-25T20:52:05.320Z,194.27
2022-11-25T20:53:28.095Z,153.88
2022-11-25T20:54:49.362Z,234.70
2022-11-25T20:56:23.982Z,105.78
2022-11-25T20:57:45.073Z,99.10
2022-11-25T20:59:18.425Z,86.80
2022-11-25T21:00:39.340Z,79.95
2022-11-25T21:02:00.435Z,53.63
2022-11-25T21:03:22.039Z,181.23
2022-11-25T21:04:43.709Z,117.47
2022-11-25T21:06:21.332Z,75.18
2022-11-25T21:07:44.445Z,77.97
2022-11-25T21:09:07.281Z,48.00
2022-11-25T21:10:34.872Z,55.58
2022-11-25T21:11:56.304Z,50.17
2022-11-25T21:13:21.450Z,52.03
2022-11-25T21:14:42.413Z,41.45
2022-11-25T21:16:03.235Z,48.55
2022-11-25T21:17:24.336Z,46.28
2022-11-25T21:18:45.669Z,59.72
2022-11-25T21:20:08.398Z,62.45
2022-11-25T21:21:33.219Z,75.53
2022-11-25T21:22:58.094Z,177.73
2022-11-25T21:24:30.417Z,113.53
2022-11-25T21:25:51.545Z,73.68
2022-11-25T21:27:16.318Z,90.88
2022-11-25T21:28:41.825Z,117.45
2022-11-25T21:30:02.654Z,255.32
2022-11-25T21:31:25.931Z,106.68
2022-11-25T21:32:47.856Z,44.28
2022-11-25T21:34:14.058Z,25.92
2022-11-25T21:35:38.917Z,21.23
2022-11-25T21:37:00.329Z,127.55
2022-11-25T21:38:24.590Z,279.67
2022-11-25T21:39:45.642Z,94.85
2022-11-25T21:41:07.636Z,101.85
2022-11-25T21:42:30.234Z,120.20
2022-11-25T21:43:51.430Z,123.30
2022-11-25T21:45:16.903Z,127.38
2022-11-25T21:46:38.015Z,93.45
2022-11-25T21:47:59.269Z,138.30
2022-11-25T21:49:20.006Z,72.25
2022-11-25T21:50:41.118Z,205.27
2022-11-25T21:52:02.240Z,156.18
2022-11-25T21:53:23.897Z,165.60
2022-11-25T21:54:45.504Z,100.97
2022-11-25T21:56:18.055Z,100.15
2022-11-25T21:57:39.842Z,143.20
2022-11-25T21:59:02.891Z,92.72
2022-11-25T22:00:25.946Z,71.97
2022-11-25T22:01:48.030Z,68.40
2022-11-25T22:03:15.925Z,20.65
2022-11-25T22:04:37.330Z,29.00
2022-11-25T22:05:58.300Z,26.90
2022-11-25T22:07:19.485Z,24.98
2022-11-25T22:08:40.717Z,25.83
2022-11-25T22:10:01.958Z,23.75
2022-11-25T22:11:31.964Z,18.13
2022-11-25T22:12:53.016Z,16.90
2022-11-25T22:14:25.382Z,13.27
2022-11-25T22:15:47.535Z,12.50
2022-11-25T22:17:16.937Z,13.73
2022-11-25T22:18:40.445Z,15.40
2022-11-25T22:20:01.890Z,15.77
2022-11-25T22:21:23.187Z,17.92
2022-11-25T22:22:44.001Z,28.25
2022-11-25T22:24:14.428Z,33.00
2022-11-25T22:25:35.594Z,18.42
2022-11-25T22:26:58.295Z,18.20
2022-11-25T22:28:26.157Z,22.45
2022-11-25T22:29:47.975Z,21.25
2022-11-25T22:31:19.373Z,21.52
2022-11-25T22:32:40.820Z,23.15
2022-11-25T22:34:01.865Z,23.67
2022-11-25T22:35:23.030Z,37.95
2022-11-25T22:36:44.095Z,42.53
2022-11-25T22:38:15.929Z,41.33
2022-11-25T22:39:36.837Z,46.13
2022-11-25T22:41:03.972Z,40.03
2022-11-25T22:42:28.617Z,34.78
2022-11-25T22:43:52.481Z,36.38
2022-11-25T22:45:33.862Z,37.90
2022-11-25T22:46:55.361Z,46.45
2022-11-25T22:48:20.606Z,24.40
2022-11-25T22:49:47.299Z,34.67
2022-11-25T22:51:16.558Z,62.03
2022-11-25T22:52:37.473Z,63.92
2022-11-25T22:53:58.701Z,53.88
2022-11-25T22:55:28.444Z,33.10
2022-11-25T22:56:49.670Z,74.68
2022-11-25T22:58:12.860Z,68.28
2022-11-25T22:59:33.850Z,57.05
2022-11-25T23:00:56.930Z,60.13
2022-11-25T23:02:32.617Z,50.95
2022-11-25T23:03:54.007Z,33.78
2022-11-25T23:05:32.615Z,34.00
2022-11-25T23:06:56.147Z,34.28
2022-11-25T23:08:26.231Z,28.13
2022-11-25T23:09:47.335Z,24.45
2022-11-25T23:11:17.740Z,22.20
2022-11-25T23:12:40.244Z,32.72
2022-11-25T23:14:00.965Z,31.23
2022-11-25T23:15:24.093Z,35.78
2022-11-25T23:16:45.742Z,32.05
2022-11-25T23:18:13.880Z,31.15
2022-11-25T23:19:34.837Z,36.90
2022-11-25T23:20:56.115Z,39.42
2022-11-25T23:22:17.941Z,30.10
2022-11-25T23:23:39.238Z,31.48
2022-11-25T23:25:00.135Z,38.45
2022-11-25T23:26:21.406Z,28.23
2022-11-25T23:27:42.824Z,30.45
2022-11-25T23:29:04.196Z,31.25
2022-11-25T23:30:25.104Z,31.25
2022-11-25T23:31:46.773Z,28.45
2022-11-25T23:33:18.280Z,26.75
2022-11-25T23:34:39.695Z,22.63
2022-11-25T23:36:06.201Z,25.33
2022-11-25T23:37:29.848Z,26.00
2022-11-25T23:38:54.906Z,22.58
2022-11-25T23:40:21.029Z,22.08
2022-11-25T23:41:41.935Z,45.85
2022-11-25T23:43:03.138Z,35.13
2022-11-25T23:44:31.816Z,30.27
2022-11-25T23:45:55.681Z,29.08
2022-11-25T23:47:20.689Z,41.20
2022-11-25T23:48:43.811Z,51.40
2022-11-25T23:50:05.803Z,42.33
2022-11-25T23:51:28.387Z,43.45
2022-11-25T23:52:50.433Z,40.33
2022-11-25T23:54:15.481Z,46.67
2022-11-25T23:55:38.757Z,46.92
2022-11-25T23:57:02.099Z,53.22
2022-11-25T23:58:23.472Z,40.22
2022-11-25T23:59:45.271Z,44.22
